createdAt,value
2018-04-09T00:00:27.100Z,68.29
2018-04-09T00:01:37.010Z,68.1
2018-04-09T00:02:47.140Z,68.29
2018-04-09T00:03:57.425Z,68.38
2018-04-09T00:05:07.583Z,68.67
2018-04-09T00:06:17.748Z,68.57
2018-04-09T00:07:27.906Z,68.76
2018-04-09T00:08:38.125Z,68.76
2018-04-09T00:09:48.253Z,68.67
2018-04-09T00:10:58.406Z,68.67
2018-04-09T00:12:08.540Z,68.29
2018-04-09T00:13:18.706Z,68.19
2018-04-09T00:14:28.867Z,68.29
2018-04-09T00:15:39.017Z,68
2018-04-09T00:16:49.165Z,67.52
2018-04-09T00:17:59.983Z,67.91
2018-04-09T00:19:10.177Z,67.91
2018-04-09T00:20:20.311Z,68
2018-04-09T00:21:30.468Z,67.71
2018-04-09T00:22:40.633Z,67.81
2018-04-09T00:23:50.856Z,68
2018-04-09T00:25:00.985Z,67.91
2018-04-09T00:26:11.142Z,68.1
2018-04-09T00:27:21.286Z,68
2018-04-09T00:28:31.520Z,68.1
2018-04-09T00:29:41.660Z,67.91
2018-04-09T00:30:51.880Z,68
2018-04-09T00:32:02.114Z,68.48
2018-04-09T00:33:12.467Z,68.29
2018-04-09T00:34:22.629Z,68.38
2018-04-09T00:35:32.805Z,68.26
2018-04-09T00:36:42.724Z,68.29
2018-04-09T00:37:52.856Z,67.91
2018-04-09T00:39:03.005Z,67.91
2018-04-09T00:40:13.153Z,68.29
2018-04-09T00:41:23.577Z,68.19
2018-04-09T00:42:33.705Z,67.68
2018-04-09T00:43:43.879Z,67.91
2018-04-09T00:44:54.038Z,67.97
2018-04-09T00:46:04.206Z,67.49
2018-04-09T00:47:14.523Z,67.49
2018-04-09T00:48:24.673Z,67.97
2018-04-09T00:49:34.779Z,68.16
2018-04-09T00:50:44.740Z,68.35
2018-04-09T00:51:54.643Z,68.73
2018-04-09T00:53:04.520Z,68.44
2018-04-09T00:54:14.676Z,68.44
2018-04-09T00:55:24.998Z,68.6
2018-04-09T00:56:35.227Z,68.32
2018-04-09T00:57:45.484Z,68.7
2018-04-09T00:58:55.676Z,68.98
2018-04-09T01:00:05.545Z,69.08
2018-04-09T01:01:15.453Z,69.08
2018-04-09T01:02:25.590Z,68.79
2018-04-09T01:03:35.709Z,69.08
2018-04-09T01:04:45.891Z,68.79
2018-04-09T01:05:55.779Z,69.17
2018-04-09T01:07:05.901Z,69.27
2018-04-09T01:08:16.117Z,69.27
2018-04-09T01:09:26.296Z,69.27
2018-04-09T01:10:36.190Z,69.27
2018-04-09T01:11:46.431Z,69.37
2018-04-09T01:12:56.687Z,69.56
2018-04-09T01:14:06.838Z,68.98
2018-04-09T01:15:16.974Z,68.98
2018-04-09T01:16:26.890Z,69.08
2018-04-09T01:17:36.931Z,69.37
2018-04-09T01:18:46.553Z,69.46
2018-04-09T01:19:56.444Z,69.17
2018-04-09T01:21:06.825Z,69.46
2018-04-09T01:22:16.963Z,69.17
2018-04-09T01:23:27.094Z,69.37
2018-04-09T01:24:37.255Z,69.37
2018-04-09T01:25:47.173Z,69.37
2018-04-09T01:26:56.731Z,69.33
2018-04-09T01:28:07.148Z,70.03
2018-04-09T01:29:17.305Z,70.09
2018-04-09T01:30:27.928Z,69.71
2018-04-09T01:31:38.101Z,69.81
2018-04-09T01:32:48.264Z,70.19
2018-04-09T01:33:58.449Z,69.9
2018-04-09T01:35:08.613Z,69.71
2018-04-09T01:36:18.724Z,69.81
2018-04-09T01:37:28.921Z,70
2018-04-09T01:38:39.074Z,69.81
2018-04-09T01:39:49.400Z,70.47
2018-04-09T01:40:59.577Z,70.38
2018-04-09T01:42:09.719Z,70.47
2018-04-09T01:43:19.603Z,70
2018-04-09T01:44:29.720Z,69.9
2018-04-09T01:45:39.707Z,69.81
2018-04-09T01:46:49.591Z,69.62
2018-04-09T01:47:59.764Z,69.9
2018-04-09T01:49:09.930Z,69.9
2018-04-09T01:50:20.112Z,69.9
2018-04-09T01:51:31.297Z,69.81
2018-04-09T01:52:41.290Z,70.47
2018-04-09T01:53:51.421Z,70.09
2018-04-09T01:55:01.553Z,70.38
2018-04-09T01:56:11.790Z,70.28
2018-04-09T01:57:22.994Z,70.57
2018-04-09T01:58:33.199Z,70.57
2018-04-09T01:59:43.420Z,70.76
2018-04-09T02:00:53.200Z,70.57
2018-04-09T02:02:03.381Z,70.86
2018-04-09T02:03:13.539Z,70.67
2018-04-09T02:04:23.765Z,70.95
2018-04-09T02:05:33.689Z,70.86
2018-04-09T02:06:43.899Z,70.67
2018-04-09T02:07:54.045Z,70.67
2018-04-09T02:09:03.570Z,70.67
2018-04-09T02:10:13.199Z,70.57
2018-04-09T02:11:23.343Z,70.67
2018-04-09T02:12:33.489Z,70.86
2018-04-09T02:13:43.133Z,70.76
2018-04-09T02:14:53.283Z,70.67
2018-04-09T02:16:03.284Z,70.76
2018-04-09T02:17:13.192Z,70.67
2018-04-09T02:18:23.324Z,71.14
2018-04-09T02:19:33.092Z,70.63
2018-04-09T02:20:43.211Z,71.01
2018-04-09T02:21:53.404Z,70.92
2018-04-09T02:23:02.913Z,70.86
2018-04-09T02:24:13.104Z,71.04
2018-04-09T02:25:23.445Z,70.76
2018-04-09T02:26:33.316Z,70.82
2018-04-09T02:27:43.193Z,70.63
2018-04-09T02:28:52.831Z,71.2
2018-04-09T02:30:03.255Z,71.48
2018-04-09T02:31:13.402Z,71.58
2018-04-09T02:32:23.530Z,71.58
2018-04-09T02:33:33.686Z,71.58
2018-04-09T02:34:43.564Z,70.92
2018-04-09T02:35:53.424Z,71.68
2018-04-09T02:37:02.964Z,71.39
2018-04-09T02:38:13.107Z,71.2
2018-04-09T02:39:23.238Z,71.68
2018-04-09T02:40:33.447Z,71.68
2018-04-09T02:41:43.823Z,71.01
2018-04-09T02:42:54.314Z,71.48
2018-04-09T02:44:03.984Z,71.33
2018-04-09T02:45:13.865Z,71.04
2018-04-09T02:46:23.995Z,71.23
2018-04-09T02:47:33.787Z,71.62
2018-04-09T02:48:44.110Z,71.62
2018-04-09T02:49:54.299Z,70.95
2018-04-09T02:51:04.479Z,71.04
2018-04-09T02:52:14.638Z,70.86
2018-04-09T02:53:24.804Z,71.14
2018-04-09T02:54:34.649Z,71.04
2018-04-09T02:55:44.860Z,70.86
2018-04-09T02:56:55.081Z,70.67
2018-04-09T02:58:04.945Z,70.95
2018-04-09T02:59:15.075Z,71.43
2018-04-09T03:00:25.230Z,71.14
2018-04-09T03:01:35.224Z,70.86
2018-04-09T03:02:45.348Z,71.04
2018-04-09T03:03:55.222Z,71.62
2018-04-09T03:05:05.296Z,72
2018-04-09T03:06:15.474Z,72
2018-04-09T03:07:25.344Z,71.62
2018-04-09T03:08:35.487Z,71.33
2018-04-09T03:09:45.332Z,71.04
2018-04-09T03:10:55.729Z,70.86
2018-04-09T03:12:05.957Z,71.33
2018-04-09T03:13:16.196Z,71.72
2018-04-09T03:14:26.121Z,71.14
2018-04-09T03:15:36.732Z,71.04
2018-04-09T03:16:46.881Z,71.14
2018-04-09T03:17:56.811Z,70.57
2018-04-09T03:19:06.998Z,71.01
2018-04-09T03:20:16.898Z,71.04
2018-04-09T03:21:26.822Z,70.82
2018-04-09T03:22:37.124Z,71.58
2018-04-09T03:23:47.503Z,71.39
2018-04-09T03:24:57.647Z,71.48
2018-04-09T03:26:07.605Z,72.06
2018-04-09T03:27:17.810Z,72.16
2018-04-09T03:28:28.990Z,72.82
2018-04-09T03:29:38.993Z,72.72
2018-04-09T03:30:49.118Z,72.16
2018-04-09T03:31:59.249Z,71.96
2018-04-09T03:33:09.466Z,72.25
2018-04-09T03:34:20.068Z,72.34
2018-04-09T03:35:30.276Z,71.58
2018-04-09T03:36:40.816Z,71.77
2018-04-09T03:37:50.688Z,71.96
2018-04-09T03:39:00.845Z,71.77
2018-04-09T03:40:10.732Z,72.06
2018-04-09T03:41:20.618Z,72.06
2018-04-09T03:42:30.421Z,71.96
2018-04-09T03:43:40.766Z,72.53
2018-04-09T03:44:50.729Z,72.25
2018-04-09T03:46:00.644Z,72.16
2018-04-09T03:47:10.769Z,72.63
2018-04-09T03:48:20.647Z,72.63
2018-04-09T03:49:30.786Z,73.01
2018-04-09T03:50:40.724Z,73.11
2018-04-09T03:51:50.855Z,73.3
2018-04-09T03:53:00.900Z,73.39
2018-04-09T03:54:10.868Z,73.3
2018-04-09T03:55:19.852Z,73.39
2018-04-09T03:56:30.233Z,73.58
2018-04-09T03:57:40.642Z,73.58
2018-04-09T03:58:50.980Z,73.96
2018-04-09T04:00:01.153Z,73.87
2018-04-09T04:01:11.278Z,73.49
2018-04-09T04:02:21.401Z,73.39
2018-04-09T04:03:31.291Z,73.39
2018-04-09T04:04:41.508Z,72.92
2018-04-09T04:05:51.475Z,73.3
2018-04-09T04:07:01.628Z,73.3
2018-04-09T04:08:11.796Z,74.06
2018-04-09T04:09:21.939Z,73.96
2018-04-09T04:10:31.750Z,74.25
2018-04-09T04:11:41.391Z,73.68
2018-04-09T04:12:51.538Z,73.68
2018-04-09T04:14:01.407Z,73.87
2018-04-09T04:15:11.770Z,74.06
2018-04-09T04:16:21.903Z,73.96
2018-04-09T04:17:32.098Z,73.77
2018-04-09T04:18:41.976Z,74.06
2018-04-09T04:19:52.183Z,73.58
2018-04-09T04:21:01.962Z,73.68
2018-04-09T04:22:12.134Z,74.16
2018-04-09T04:23:21.997Z,74.25
2018-04-09T04:24:32.412Z,73.87
2018-04-09T04:25:42.615Z,74.35
2018-04-09T04:26:53.050Z,73.96
2018-04-09T04:28:03.186Z,73.96
2018-04-09T04:29:13.335Z,74.16
2018-04-09T04:30:23.120Z,74.06
2018-04-09T04:31:33.297Z,74.35
2018-04-09T04:32:43.189Z,74.16
2018-04-09T04:33:53.344Z,73.68
2018-04-09T04:35:03.205Z,73.87
2018-04-09T04:36:13.245Z,73.68
2018-04-09T04:37:23.490Z,73.96
2018-04-09T04:38:33.634Z,73.96
2018-04-09T04:39:43.852Z,74.06
2018-04-09T04:40:54.087Z,73.87
2018-04-09T04:42:04.282Z,73.77
2018-04-09T04:43:14.262Z,74.35
2018-04-09T04:44:24.146Z,74.35
2018-04-09T04:45:34.582Z,74.16
2018-04-09T04:46:44.772Z,74.06
2018-04-09T04:47:55.122Z,74.44
2018-04-09T04:49:05.021Z,74.63
2018-04-09T04:50:14.631Z,74.73
2018-04-09T04:51:24.411Z,74.44
2018-04-09T04:52:34.638Z,74.25
2018-04-09T04:53:44.818Z,74.25
2018-04-09T04:54:54.991Z,74.5
2018-04-09T04:56:05.359Z,74.54
2018-04-09T04:57:15.332Z,74.54
2018-04-09T04:58:25.191Z,74.35
2018-04-09T04:59:35.356Z,74.92
2018-04-09T05:00:45.499Z,75.01
2018-04-09T05:01:55.418Z,75.01
2018-04-09T05:03:05.580Z,75.2
2018-04-09T05:04:15.750Z,75.01
2018-04-09T05:05:25.926Z,75.11
2018-04-09T05:06:35.763Z,75.01
2018-04-09T05:07:45.727Z,74.92
2018-04-09T05:08:55.877Z,75.01
2018-04-09T05:10:05.835Z,75.01
2018-04-09T05:11:16.084Z,75.01
2018-04-09T05:12:25.956Z,75.11
2018-04-09T05:13:35.858Z,75.49
2018-04-09T05:14:46.078Z,75.49
2018-04-09T05:15:56.254Z,75.11
2018-04-09T05:17:06.520Z,75.4
2018-04-09T05:18:16.742Z,75.11
2018-04-09T05:19:26.364Z,75.36
2018-04-09T05:20:36.506Z,75.36
2018-04-09T05:21:46.479Z,75.45
2018-04-09T05:22:56.688Z,76.12
2018-04-09T05:24:06.579Z,76.03
2018-04-09T05:25:16.338Z,75.55
2018-04-09T05:26:26.211Z,75.93
2018-04-09T05:27:36.088Z,75.84
2018-04-09T05:28:46.060Z,75.93
2018-04-09T05:29:57.228Z,76.03
2018-04-09T05:31:07.128Z,76.12
2018-04-09T05:32:17.096Z,76.12
2018-04-09T05:33:26.990Z,76.79
2018-04-09T05:34:37.191Z,76.59
2018-04-09T05:35:47.085Z,76.5
2018-04-09T05:36:57.187Z,76.59
2018-04-09T05:38:07.365Z,76.5
2018-04-09T05:39:17.493Z,76.59
2018-04-09T05:40:27.328Z,76.59
2018-04-09T05:41:37.213Z,76.79
2018-04-09T05:42:47.081Z,76.88
2018-04-09T05:43:56.337Z,76.69
2018-04-09T05:45:06.510Z,76.79
2018-04-09T05:46:16.758Z,77.17
2018-04-09T05:47:26.948Z,77.17
2018-04-09T05:48:37.268Z,77.26
2018-04-09T05:49:47.160Z,77.17
2018-04-09T05:50:56.545Z,77.36
2018-04-09T05:52:06.460Z,77.36
2018-04-09T05:53:15.816Z,77.36
2018-04-09T05:54:25.950Z,77.26
2018-04-09T05:55:35.851Z,77.26
2018-04-09T05:56:46.101Z,77.07
2018-04-09T05:57:56.265Z,77.26
2018-04-09T05:59:37.556Z,77.07
2018-04-09T06:00:47.761Z,77.64
2018-04-09T06:01:57.915Z,78.22
2018-04-09T06:03:07.758Z,78.12
2018-04-09T06:04:17.994Z,77.83
2018-04-09T06:05:28.159Z,77.64
2018-04-09T06:06:38.402Z,77.83
2018-04-09T06:07:48.308Z,77.26
2018-04-09T06:08:58.464Z,77.36
2018-04-09T06:10:08.625Z,77.07
2018-04-09T06:11:18.698Z,77.26
2018-04-09T06:12:28.701Z,77.17
2018-04-09T06:13:38.651Z,77.45
2018-04-09T06:14:48.328Z,77.17
2018-04-09T06:15:58.285Z,77.17
2018-04-09T06:17:08.262Z,77.17
2018-04-09T06:18:18.593Z,77.4
2018-04-09T06:19:28.779Z,77.3
2018-04-09T06:20:38.622Z,77.49
2018-04-09T06:21:48.501Z,76.92
2018-04-09T06:22:58.408Z,76.92
2018-04-09T06:24:08.810Z,76.73
2018-04-09T06:25:18.950Z,76.64
2018-04-09T06:26:28.274Z,76.64
2018-04-09T06:27:38.401Z,76.35
2018-04-09T06:28:48.675Z,76.57
2018-04-09T06:29:58.796Z,76.2
2018-04-09T06:31:08.322Z,76.01
2018-04-09T06:32:18.468Z,75.72
2018-04-09T06:33:28.606Z,75.81
2018-04-09T06:34:38.743Z,75.62
2018-04-09T06:35:48.462Z,75.81
2018-04-09T06:36:58.688Z,75.66
2018-04-09T06:38:08.968Z,74.96
2018-04-09T06:39:18.875Z,75.09
2018-04-09T06:40:28.735Z,75.18
2018-04-09T06:41:38.487Z,74.52
2018-04-09T06:42:48.373Z,74.52
2018-04-09T06:43:58.258Z,74.61
2018-04-09T06:45:08.281Z,74.52
2018-04-09T06:46:18.473Z,74.32
2018-04-09T06:47:28.105Z,74.04
2018-04-09T06:48:37.864Z,73.85
2018-04-09T06:49:47.975Z,74.32
2018-04-09T06:50:57.757Z,74.04
2018-04-09T06:52:07.908Z,74.04
2018-04-09T06:53:17.555Z,74.04
2018-04-09T06:54:27.471Z,73.79
2018-04-09T06:55:37.612Z,73.69
2018-04-09T06:56:47.823Z,73.88
2018-04-09T06:57:57.972Z,73.6
2018-04-09T06:59:08.158Z,73.69
2018-04-09T07:00:18.341Z,73.41
2018-04-09T07:01:28.270Z,73.12
2018-04-09T07:02:38.414Z,73.22
2018-04-09T07:03:48.648Z,73.12
2018-04-09T07:04:58.850Z,72.74
2018-04-09T07:06:08.999Z,72.83
2018-04-09T07:07:18.905Z,72.83
2018-04-09T07:08:29.059Z,73.03
2018-04-09T07:09:39.222Z,72.83
2018-04-09T07:10:49.443Z,73.12
2018-04-09T07:11:59.308Z,72.26
2018-04-09T07:13:09.252Z,72.17
2018-04-09T07:14:20.506Z,73.03
2018-04-09T07:15:30.456Z,72.83
2018-04-09T07:16:40.387Z,73.03
2018-04-09T07:17:49.931Z,72.64
2018-04-09T07:19:00.092Z,72.55
2018-04-09T07:20:10.009Z,72.55
2018-04-09T07:21:19.789Z,72.55
2018-04-09T07:22:29.435Z,72.26
2018-04-09T07:23:39.570Z,72.26
2018-04-09T07:24:50.706Z,72.36
2018-04-09T07:26:05.147Z,72.3
2018-04-09T07:27:14.765Z,71.53
2018-04-09T07:28:24.574Z,72.01
2018-04-09T07:29:34.483Z,71.82
2018-04-09T07:30:44.627Z,71.44
2018-04-09T07:31:54.438Z,71.92
2018-04-09T07:33:04.643Z,70.96
2018-04-09T07:34:14.783Z,70.87
2018-04-09T07:35:24.984Z,70.96
2018-04-09T07:36:35.197Z,71.06
2018-04-09T07:37:45.197Z,71.25
2018-04-09T07:38:55.392Z,70.87
2018-04-09T07:40:05.509Z,70.61
2018-04-09T07:41:15.743Z,70.23
2018-04-09T07:42:25.909Z,70.61
2018-04-09T07:43:36.080Z,70.04
2018-04-09T07:44:46.293Z,70.07
2018-04-09T07:45:56.458Z,69.41
2018-04-09T07:47:06.744Z,68.93
2018-04-09T07:48:16.533Z,68.93
2018-04-09T07:49:26.691Z,68.49
2018-04-09T07:50:36.577Z,68.2
2018-04-09T07:51:46.774Z,67.91
2018-04-09T07:52:57.071Z,68.1
2018-04-09T07:54:07.245Z,67.53
2018-04-09T07:56:28.969Z,67.08
2018-04-09T07:57:39.187Z,66.61
2018-04-09T07:58:49.371Z,66.61
2018-04-09T07:59:59.547Z,66.06
2018-04-09T08:01:09.823Z,65.91
2018-04-09T08:02:19.962Z,64.72
2018-04-09T08:03:29.622Z,64.56
2018-04-09T08:04:39.981Z,62.71
2018-04-09T08:05:50.323Z,61.71
2018-04-09T08:07:00.528Z,60.21
2018-04-09T08:08:10.795Z,58.63
2018-04-09T08:09:20.956Z,57.12
2018-04-09T08:10:31.125Z,55.51
2018-04-09T08:11:41.277Z,54.76
2018-04-09T08:12:51.465Z,54.09
2018-04-09T08:14:01.643Z,53.34
2018-04-09T08:15:12.413Z,52.69
2018-04-09T08:16:23.515Z,51.75
2018-04-09T08:17:34.917Z,50.5
2018-04-09T08:18:46.351Z,49.55
2018-04-09T08:19:56.494Z,49.17
2018-04-09T08:21:06.643Z,48.52
2018-04-09T08:22:16.783Z,47.94
2018-04-09T08:23:27.028Z,47.19
2018-04-09T08:24:37.328Z,46.63
2018-04-09T08:25:47.481Z,45.76
2018-04-09T08:26:58.624Z,45.59
2018-04-09T08:28:08.823Z,44.91
2018-04-09T08:29:18.981Z,44.06
2018-04-09T08:30:29.299Z,43.31
2018-04-09T08:31:39.568Z,43.21
2018-04-09T08:32:49.969Z,42.65
2018-04-09T08:34:00.173Z,42.26
2018-04-09T08:35:10.451Z,41.58
2018-04-09T08:36:20.609Z,41.12
2018-04-09T08:37:30.758Z,40.34
2018-04-09T08:38:40.932Z,39.98
2018-04-09T08:39:51.429Z,39.67
2018-04-09T08:41:01.807Z,39.47
2018-04-09T08:42:12.024Z,38.89
2018-04-09T08:43:22.212Z,39.28
2018-04-09T08:44:32.674Z,38.79
2018-04-09T08:45:42.858Z,38.7
2018-04-09T08:46:53.015Z,38.23
2018-04-09T08:48:03.234Z,38.04
2018-04-09T08:49:13.367Z,37.73
2018-04-09T08:50:23.291Z,37.73
2018-04-09T08:51:33.450Z,37.35
2018-04-09T08:52:43.610Z,37.34
2018-04-09T08:53:53.774Z,37.05
2018-04-09T08:55:04.143Z,36.95
2018-04-09T08:56:14.303Z,36.77
2018-04-09T08:57:24.456Z,37.07
2018-04-09T08:58:34.852Z,36.38
2018-04-09T08:59:44.903Z,35.71
2018-04-09T09:00:56.097Z,35.63
2018-04-09T09:02:07.499Z,35.71
2018-04-09T09:03:17.697Z,35.32
2018-04-09T09:04:28.448Z,35.22
2018-04-09T09:05:38.620Z,35.32
2018-04-09T09:06:48.391Z,34.93
2018-04-09T09:07:58.270Z,35.03
2018-04-09T09:09:08.631Z,34.85
2018-04-09T09:10:18.824Z,34.75
2018-04-09T09:11:28.981Z,34.58
2018-04-09T09:12:39.268Z,34.67
2018-04-09T09:13:49.801Z,34.58
2018-04-09T09:14:59.969Z,34.5
2018-04-09T09:16:09.871Z,34.01
2018-04-09T09:17:20.111Z,33.53
2018-04-09T09:18:30.381Z,33.25
2018-04-09T09:19:42.774Z,33.06
2018-04-09T09:20:53.644Z,32.57
2018-04-09T09:22:03.955Z,32.37
2018-04-09T09:23:13.858Z,32.45
2018-04-09T09:24:24.009Z,33.04
2018-04-09T09:25:34.266Z,33.31
2018-04-09T09:26:44.479Z,33.43
2018-04-09T09:27:54.687Z,33.04
2018-04-09T09:29:04.485Z,33.33
2018-04-09T09:30:14.681Z,33.14
2018-04-09T09:31:24.329Z,32.86
2018-04-09T09:32:34.485Z,32.86
2018-04-09T09:33:44.739Z,32.67
2018-04-09T09:34:54.995Z,32.28
2018-04-09T09:36:06.250Z,32.2
2018-04-09T09:37:16.475Z,31.9
2018-04-09T09:38:26.693Z,32.11
2018-04-09T09:39:36.613Z,31.34
2018-04-09T09:40:46.529Z,31.14
2018-04-09T09:41:56.704Z,30.94
2018-04-09T09:43:06.272Z,30.85
2018-04-09T09:44:16.256Z,30.75
2018-04-09T09:45:26.413Z,30.74
2018-04-09T09:46:36.304Z,31.03
2018-04-09T09:47:46.463Z,30.83
2018-04-09T09:48:56.736Z,31.13
2018-04-09T09:50:06.914Z,30.93
2018-04-09T09:51:18.025Z,30.74
2018-04-09T09:52:27.739Z,30.25
2018-04-09T09:53:37.071Z,30.05
2018-04-09T09:54:47.233Z,30.15
2018-04-09T09:55:57.192Z,30.25
2018-04-09T09:57:07.360Z,30.04
2018-04-09T09:58:17.549Z,29.94
2018-04-09T09:59:27.759Z,29.75
2018-04-09T10:00:37.947Z,29.36
2018-04-09T10:01:48.099Z,29.54
2018-04-09T10:02:58.066Z,29.44
2018-04-09T10:04:07.596Z,29.52
2018-04-09T10:05:17.769Z,29.62
2018-04-09T10:06:27.749Z,29.43
2018-04-09T10:07:37.909Z,29.72
2018-04-09T10:08:48.040Z,29.72
2018-04-09T10:09:58.215Z,30
2018-04-09T10:11:08.402Z,30
2018-04-09T10:12:18.556Z,30
2018-04-09T10:13:28.725Z,29.98
2018-04-09T10:14:38.917Z,30.18
2018-04-09T10:15:49.090Z,30.57
2018-04-09T10:16:59.259Z,30.66
2018-04-09T10:18:09.435Z,30.66
2018-04-09T10:19:19.376Z,31.15
2018-04-09T10:20:29.297Z,30.76
2018-04-09T10:21:39.458Z,30.38
2018-04-09T10:22:49.634Z,29.9
2018-04-09T10:23:59.827Z,30.21
2018-04-09T10:25:09.994Z,30.4
2018-04-09T10:26:19.819Z,30.4
2018-04-09T10:27:30.252Z,30.4
2018-04-09T10:28:40.045Z,30.59
2018-04-09T10:29:50.260Z,30.59
2018-04-09T10:31:00.454Z,30.69
2018-04-09T10:32:10.428Z,30.69
2018-04-09T10:33:20.653Z,30.79
2018-04-09T10:34:30.905Z,30.59
2018-04-09T10:35:40.623Z,30.4
2018-04-09T10:36:50.912Z,30.3
2018-04-09T10:38:00.842Z,30.59
2018-04-09T10:39:10.383Z,30.59
2018-04-09T10:40:20.666Z,30.59
2018-04-09T10:41:30.295Z,30.41
2018-04-09T10:42:40.499Z,30.04
2018-04-09T10:43:50.390Z,29.46
2018-04-09T10:45:00.553Z,29.36
2018-04-09T10:46:10.738Z,29.47
2018-04-09T10:47:20.637Z,29.08
2018-04-09T10:48:30.604Z,29.18
2018-04-09T10:49:40.557Z,28.89
2018-04-09T10:50:50.527Z,28.69
2018-04-09T10:52:00.857Z,28.69
2018-04-09T10:53:10.504Z,28.78
2018-04-09T10:54:20.746Z,28.88
2018-04-09T10:55:30.498Z,29.06
2018-04-09T10:56:40.783Z,29.25
2018-04-09T10:57:50.691Z,29.54
2018-04-09T10:59:00.610Z,29.44
2018-04-09T11:00:10.524Z,29.64
2018-04-09T11:01:20.426Z,29.44
2018-04-09T11:02:30.081Z,29.44
2018-04-09T11:03:40.279Z,29.72
2018-04-09T11:04:50.453Z,29.9
2018-04-09T11:05:59.752Z,29.91
2018-04-09T11:07:09.904Z,30.01
2018-04-09T11:08:19.827Z,29.82
2018-04-09T11:09:29.998Z,29.8
2018-04-09T11:10:40.182Z,29.71
2018-04-09T11:11:50.674Z,29.8
2018-04-09T11:13:01.592Z,29.8
2018-04-09T11:14:11.384Z,29.71
2018-04-09T11:15:21.567Z,29.8
2018-04-09T11:16:31.745Z,29.72
2018-04-09T11:17:41.910Z,29.64
2018-04-09T11:18:52.308Z,29.74
2018-04-09T11:20:02.669Z,29.35
2018-04-09T11:21:12.825Z,29.25
2018-04-09T11:22:22.493Z,29.35
2018-04-09T11:23:32.702Z,29.15
2018-04-09T11:24:42.877Z,29.83
2018-04-09T11:25:53.086Z,29.26
2018-04-09T11:27:02.993Z,28.88
2018-04-09T11:28:12.887Z,28.97
2018-04-09T11:29:22.561Z,28.97
2018-04-09T11:30:32.412Z,28.68
2018-04-09T11:31:42.240Z,28.96
2018-04-09T11:32:52.423Z,28.96
2018-04-09T11:34:02.097Z,29.15
2018-04-09T11:35:11.943Z,29.05
2018-04-09T11:36:22.109Z,29.16
2018-04-09T11:37:38.542Z,28.39
2018-04-09T11:38:48.796Z,28.11
2018-04-09T11:40:00.794Z,28.4
2018-04-09T11:41:12.223Z,28.2
2018-04-09T11:42:22.410Z,28.11
2018-04-09T11:43:32.612Z,27.62
2018-04-09T11:44:42.822Z,28.11
2018-04-09T11:45:53.051Z,28.02
2018-04-09T11:47:03.289Z,27.43
2018-04-09T11:48:13.485Z,27.82
2018-04-09T11:49:23.419Z,27.82
2018-04-09T11:50:33.589Z,27.04
2018-04-09T11:51:43.397Z,27.33
2018-04-09T11:52:53.569Z,27.53
2018-04-09T11:54:03.234Z,27.14
2018-04-09T11:55:13.171Z,27.72
2018-04-09T11:56:22.814Z,27.51
2018-04-09T11:57:32.762Z,27.98
2018-04-09T11:58:42.987Z,28.08
2018-04-09T11:59:52.860Z,28.08
2018-04-09T12:01:03.066Z,27.4
2018-04-09T12:02:13.380Z,27.5
2018-04-09T12:03:23.113Z,27.7
2018-04-09T12:04:32.690Z,27.04
2018-04-09T12:05:42.332Z,27.14
2018-04-09T12:06:52.265Z,26.65
2018-04-09T12:08:01.831Z,26.76
2018-04-09T12:09:11.670Z,26.84
2018-04-09T12:10:21.640Z,26.84
2018-04-09T12:11:32.046Z,27.04
2018-04-09T12:12:42.227Z,27.7
2018-04-09T12:13:52.150Z,27.31
2018-04-09T12:15:02.313Z,28.28
2018-04-09T12:16:12.087Z,28.36
2018-04-09T12:17:22.103Z,28.74
2018-04-09T12:18:31.758Z,29.11
2018-04-09T12:19:41.743Z,29.19
2018-04-09T12:20:51.956Z,29.28
2018-04-09T12:22:01.864Z,29.68
2018-04-09T12:23:11.801Z,29.97
2018-04-09T12:24:21.721Z,30.24
2018-04-09T12:25:31.538Z,30.54
2018-04-09T12:26:41.459Z,30.62
2018-04-09T12:27:51.637Z,30.91
2018-04-09T12:29:01.849Z,31.29
2018-04-09T12:30:12.032Z,31.2
2018-04-09T12:31:22.338Z,31.37
2018-04-09T12:32:32.578Z,31.47
2018-04-09T12:33:42.510Z,31.76
2018-04-09T12:34:52.669Z,31.96
2018-04-09T12:36:02.863Z,32.33
2018-04-09T12:37:13.113Z,32.52
2018-04-09T12:38:22.401Z,32.62
2018-04-09T12:39:32.336Z,32.33
2018-04-09T12:40:42.376Z,32.91
2018-04-09T12:41:52.430Z,32.71
2018-04-09T12:43:02.371Z,32.62
2018-04-09T12:44:12.538Z,32.91
2018-04-09T12:45:22.697Z,32.91
2018-04-09T12:46:32.869Z,33.1
2018-04-09T12:47:43.079Z,33.2
2018-04-09T12:48:53.467Z,33.1
2018-04-09T12:50:03.608Z,33.1
2018-04-09T12:51:13.980Z,33.39
2018-04-09T12:52:24.157Z,33.39
2018-04-09T12:53:34.338Z,33.29
2018-04-09T12:54:44.562Z,33.49
2018-04-09T12:55:54.717Z,33.69
2018-04-09T12:57:04.638Z,33.39
2018-04-09T12:58:14.838Z,33.59
2018-04-09T12:59:25.010Z,33.76
2018-04-09T13:00:35.260Z,33.86
2018-04-09T13:01:45.440Z,34.15
2018-04-09T13:02:55.616Z,34.34
2018-04-09T13:04:05.532Z,34.63
2018-04-09T13:05:15.836Z,35.02
2018-04-09T13:06:26.068Z,34.83
2018-04-09T13:07:36.325Z,34.92
2018-04-09T13:08:46.636Z,34.73
2018-04-09T13:09:56.791Z,34.63
2018-04-09T13:11:07.002Z,34.63
2018-04-09T13:12:17.191Z,34.45
2018-04-09T13:13:27.378Z,34.45
2018-04-09T13:14:37.571Z,34.45
2018-04-09T13:15:47.874Z,34.45
2018-04-09T13:16:58.060Z,34.27
2018-04-09T13:18:08.286Z,33.99
2018-04-09T13:19:18.507Z,34.36
2018-04-09T13:20:28.734Z,34.36
2018-04-09T13:21:38.940Z,34.27
2018-04-09T13:22:49.228Z,34.27
2018-04-09T13:23:59.425Z,33.78
2018-04-09T13:25:09.356Z,34.36
2018-04-09T13:26:19.522Z,34.27
2018-04-09T13:27:29.704Z,34.27
2018-04-09T13:28:39.889Z,34.36
2018-04-09T13:29:50.184Z,34.17
2018-04-09T13:31:00.124Z,34.27
2018-04-09T13:32:10.210Z,34.27
2018-04-09T13:33:20.397Z,34.25
2018-04-09T13:34:30.618Z,34.15
2018-04-09T13:35:40.921Z,34.34
2018-04-09T13:36:51.594Z,34.44
2018-04-09T13:38:01.796Z,34.62
2018-04-09T13:39:11.988Z,34.71
2018-04-09T13:40:22.167Z,34.81
2018-04-09T13:41:32.441Z,34.91
2018-04-09T13:42:42.609Z,35
2018-04-09T13:43:52.797Z,34.91
2018-04-09T13:45:03.031Z,34.91
2018-04-09T13:46:13.230Z,34.91
2018-04-09T13:47:23.479Z,35.1
2018-04-09T13:48:33.691Z,35.08
2018-04-09T13:49:43.936Z,35.28
2018-04-09T13:50:54.109Z,35.47
2018-04-09T13:52:04.306Z,35.47
2018-04-09T13:53:14.510Z,35.66
2018-04-09T13:54:24.719Z,35.66
2018-04-09T13:55:34.879Z,35.47
2018-04-09T13:56:45.244Z,35.36
2018-04-09T13:57:55.059Z,35.74
2018-04-09T13:59:05.266Z,35.94
2018-04-09T14:00:15.429Z,36.13
2018-04-09T14:01:25.610Z,35.94
2018-04-09T14:02:35.769Z,35.74
2018-04-09T14:03:45.960Z,35.64
2018-04-09T14:04:56.204Z,35.55
2018-04-09T14:06:06.365Z,35.45
2018-04-09T14:07:16.833Z,35.55
2018-04-09T14:08:27.020Z,35.64
2018-04-09T14:09:37.203Z,35.55
2018-04-09T14:10:47.418Z,35.55
2018-04-09T14:11:57.605Z,35.64
2018-04-09T14:13:08.782Z,35.66
2018-04-09T14:14:19.003Z,35.55
2018-04-09T14:15:29.222Z,35.26
2018-04-09T14:16:39.407Z,35.26
2018-04-09T14:17:49.588Z,35.55
2018-04-09T14:18:59.752Z,35.45
2018-04-09T14:20:09.919Z,35.55
2018-04-09T14:21:20.087Z,35.45
2018-04-09T14:22:30.252Z,35.64
2018-04-09T14:23:40.436Z,35.55
2018-04-09T14:24:50.637Z,35.36
2018-04-09T14:26:00.831Z,35.16
2018-04-09T14:27:11.026Z,35.84
2018-04-09T14:28:21.211Z,35.64
2018-04-09T14:29:31.405Z,35.55
2018-04-09T14:30:41.660Z,35.45
2018-04-09T14:31:51.925Z,35.45
2018-04-09T14:33:02.138Z,35.45
2018-04-09T14:34:12.592Z,35.45
2018-04-09T14:35:22.974Z,35.06
2018-04-09T14:36:33.203Z,35.16
2018-04-09T14:37:43.418Z,35.26
2018-04-09T14:38:53.635Z,35.06
2018-04-09T14:40:03.822Z,35.16
2018-04-09T14:41:13.986Z,35.36
2018-04-09T14:42:24.273Z,34.97
2018-04-09T14:43:34.517Z,35.26
2018-04-09T14:44:44.731Z,34.97
2018-04-09T14:45:54.960Z,35.36
2018-04-09T14:47:05.219Z,35.36
2018-04-09T14:48:15.439Z,35.36
2018-04-09T14:49:25.658Z,35.26
2018-04-09T14:50:35.826Z,35.16
2018-04-09T14:51:45.787Z,35.16
2018-04-09T14:52:55.997Z,35.06
2018-04-09T14:54:06.199Z,35.36
2018-04-09T14:55:16.397Z,35.26
2018-04-09T14:56:26.591Z,35.26
2018-04-09T14:57:36.807Z,35.36
2018-04-09T14:58:47.042Z,35.55
2018-04-09T14:59:57.288Z,35.55
2018-04-09T15:01:07.288Z,35.64
2018-04-09T15:02:17.243Z,35.84
2018-04-09T15:03:27.181Z,36.03
2018-04-09T15:04:37.517Z,35.64
2018-04-09T15:05:47.707Z,36.22
2018-04-09T15:06:57.917Z,36.13
2018-04-09T15:08:09.389Z,36.21